sensor_id;sensor_type;location;lat;lon;timestamp;P1;durP1;ratioP1;P2;durP2;ratioP2
23416;SDS011;11881;42.432;25.632;2022-10-16T00:00:34;10.20;;;5.17;;
23416;SDS011;11881;42.432;25.632;2022-10-16T00:03:01;7.03;;;5.00;;
23416;SDS011;11881;42.432;25.632;2022-10-16T00:05:27;11.73;;;5.30;;
23416;SDS011;11881;42.432;25.632;2022-10-16T00:07:52;11.00;;;5.10;;
23416;SDS011;11881;42.432;25.632;2022-10-16T00:10:18;10.63;;;5.07;;
23416;SDS011;11881;42.432;25.632;2022-10-16T00:12:43;5.77;;;4.57;;
23416;SDS011;11881;42.432;25.632;2022-10-16T00:15:09;7.40;;;4.93;;
23416;SDS011;11881;42.432;25.632;2022-10-16T00:17:34;10.70;;;4.93;;
23416;SDS011;11881;42.432;25.632;2022-10-16T00:20:00;12.30;;;5.33;;
23416;SDS011;11881;42.432;25.632;2022-10-16T00:22:26;8.73;;;4.73;;
23416;SDS011;11881;42.432;25.632;2022-10-16T00:24:51;9.67;;;4.90;;
23416;SDS011;11881;42.432;25.632;2022-10-16T00:27:16;8.57;;;5.10;;
23416;SDS011;11881;42.432;25.632;2022-10-16T00:29:42;6.87;;;4.80;;
23416;SDS011;11881;42.432;25.632;2022-10-16T00:32:08;11.93;;;5.30;;
23416;SDS011;11881;42.432;25.632;2022-10-16T00:34:34;11.93;;;4.87;;
23416;SDS011;11881;42.432;25.632;2022-10-16T00:36:59;6.23;;;4.97;;
23416;SDS011;11881;42.432;25.632;2022-10-16T00:39:24;9.60;;;4.60;;
23416;SDS011;11881;42.432;25.632;2022-10-16T00:41:50;12.20;;;5.00;;
23416;SDS011;11881;42.432;25.632;2022-10-16T00:47:08;9.53;;;4.83;;
23416;SDS011;11881;42.432;25.632;2022-10-16T00:49:35;12.23;;;5.57;;
23416;SDS011;11881;42.432;25.632;2022-10-16T00:52:01;8.63;;;4.80;;
23416;SDS011;11881;42.432;25.632;2022-10-16T00:54:27;9.40;;;4.87;;
23416;SDS011;11881;42.432;25.632;2022-10-16T00:56:56;7.30;;;4.90;;
23416;SDS011;11881;42.432;25.632;2022-10-16T00:59:25;10.27;;;4.77;;
23416;SDS011;11881;42.432;25.632;2022-10-16T01:01:53;11.27;;;5.10;;
23416;SDS011;11881;42.432;25.632;2022-10-16T01:04:19;8.20;;;5.00;;
23416;SDS011;11881;42.432;25.632;2022-10-16T01:09:32;10.03;;;5.03;;
23416;SDS011;11881;42.432;25.632;2022-10-16T01:12:10;9.50;;;5.03;;
23416;SDS011;11881;42.432;25.632;2022-10-16T01:20:14;8.97;;;4.83;;
23416;SDS011;11881;42.432;25.632;2022-10-16T01:26:04;8.23;;;4.97;;
23416;SDS011;11881;42.432;25.632;2022-10-16T01:31:59;9.67;;;5.07;;
23416;SDS011;11881;42.432;25.632;2022-10-16T01:35:14;9.70;;;4.77;;
23416;SDS011;11881;42.432;25.632;2022-10-16T01:37:29;5.53;;;4.23;;
23416;SDS011;11881;42.432;25.632;2022-10-16T01:40:26;9.17;;;4.23;;
23416;SDS011;11881;42.432;25.632;2022-10-16T01:42:59;9.97;;;4.63;;
23416;SDS011;11881;42.432;25.632;2022-10-16T01:45:28;6.43;;;4.73;;
23416;SDS011;11881;42.432;25.632;2022-10-16T01:47:56;7.10;;;5.00;;
23416;SDS011;11881;42.432;25.632;2022-10-16T01:50:25;6.97;;;5.23;;
23416;SDS011;11881;42.432;25.632;2022-10-16T01:52:52;8.40;;;4.83;;
23416;SDS011;11881;42.432;25.632;2022-10-16T01:55:26;8.70;;;5.10;;
23416;SDS011;11881;42.432;25.632;2022-10-16T01:57:55;13.97;;;5.57;;
23416;SDS011;11881;42.432;25.632;2022-10-16T02:00:24;6.77;;;5.13;;
23416;SDS011;11881;42.432;25.632;2022-10-16T02:02:52;8.50;;;5.20;;
23416;SDS011;11881;42.432;25.632;2022-10-16T02:05:27;9.23;;;5.87;;
23416;SDS011;11881;42.432;25.632;2022-10-16T02:07:56;8.67;;;5.00;;
23416;SDS011;11881;42.432;25.632;2022-10-16T02:10:21;9.10;;;5.63;;
23416;SDS011;11881;42.432;25.632;2022-10-16T02:12:50;6.87;;;4.97;;
23416;SDS011;11881;42.432;25.632;2022-10-16T02:15:22;6.07;;;4.87;;
23416;SDS011;11881;42.432;25.632;2022-10-16T02:17:47;8.93;;;5.20;;
23416;SDS011;11881;42.432;25.632;2022-10-16T02:20:13;7.67;;;5.23;;
23416;SDS011;11881;42.432;25.632;2022-10-16T02:22:47;7.07;;;5.23;;
23416;SDS011;11881;42.432;25.632;2022-10-16T02:25:17;9.50;;;5.50;;
23416;SDS011;11881;42.432;25.632;2022-10-16T02:27:57;10.10;;;4.83;;
23416;SDS011;11881;42.432;25.632;2022-10-16T02:30:39;9.17;;;4.60;;
23416;SDS011;11881;42.432;25.632;2022-10-16T02:33:09;7.93;;;4.77;;
23416;SDS011;11881;42.432;25.632;2022-10-16T02:35:38;9.00;;;4.67;;
23416;SDS011;11881;42.432;25.632;2022-10-16T02:38:05;12.53;;;5.03;;
23416;SDS011;11881;42.432;25.632;2022-10-16T02:40:32;7.67;;;4.70;;
23416;SDS011;11881;42.432;25.632;2022-10-16T02:42:58;7.03;;;4.80;;
23416;SDS011;11881;42.432;25.632;2022-10-16T02:45:24;8.63;;;4.60;;
23416;SDS011;11881;42.432;25.632;2022-10-16T02:47:50;7.87;;;4.93;;
23416;SDS011;11881;42.432;25.632;2022-10-16T02:50:16;7.07;;;4.97;;
23416;SDS011;11881;42.432;25.632;2022-10-16T02:52:42;9.63;;;4.67;;
23416;SDS011;11881;42.432;25.632;2022-10-16T02:55:07;8.37;;;4.83;;
23416;SDS011;11881;42.432;25.632;2022-10-16T02:57:33;6.23;;;4.70;;
23416;SDS011;11881;42.432;25.632;2022-10-16T03:00:00;8.43;;;4.77;;
23416;SDS011;11881;42.432;25.632;2022-10-16T03:02:25;7.33;;;4.70;;
23416;SDS011;11881;42.432;25.632;2022-10-16T03:04:51;8.67;;;4.50;;
23416;SDS011;11881;42.432;25.632;2022-10-16T03:07:16;11.23;;;4.57;;
23416;SDS011;11881;42.432;25.632;2022-10-16T03:09:41;8.07;;;4.40;;
23416;SDS011;11881;42.432;25.632;2022-10-16T03:12:07;5.20;;;3.93;;
23416;SDS011;11881;42.432;25.632;2022-10-16T03:14:33;6.37;;;4.17;;
23416;SDS011;11881;42.432;25.632;2022-10-16T03:16:58;8.83;;;4.03;;
23416;SDS011;11881;42.432;25.632;2022-10-16T03:19:24;6.07;;;4.27;;
23416;SDS011;11881;42.432;25.632;2022-10-16T03:21:49;9.13;;;4.50;;
23416;SDS011;11881;42.432;25.632;2022-10-16T03:24:15;4.07;;;3.67;;
23416;SDS011;11881;42.432;25.632;2022-10-16T03:26:40;10.53;;;4.53;;
23416;SDS011;11881;42.432;25.632;2022-10-16T03:29:06;5.20;;;3.60;;
23416;SDS011;11881;42.432;25.632;2022-10-16T03:31:31;6.30;;;4.37;;
23416;SDS011;11881;42.432;25.632;2022-10-16T03:33:57;7.20;;;3.93;;
23416;SDS011;11881;42.432;25.632;2022-10-16T03:36:23;8.67;;;3.53;;
23416;SDS011;11881;42.432;25.632;2022-10-16T03:38:48;7.00;;;3.90;;
23416;SDS011;11881;42.432;25.632;2022-10-16T03:41:14;7.37;;;4.00;;
23416;SDS011;11881;42.432;25.632;2022-10-16T03:43:39;7.93;;;4.10;;
23416;SDS011;11881;42.432;25.632;2022-10-16T03:46:05;8.27;;;4.17;;
23416;SDS011;11881;42.432;25.632;2022-10-16T03:48:31;6.20;;;4.60;;
23416;SDS011;11881;42.432;25.632;2022-10-16T03:50:57;5.87;;;4.00;;
23416;SDS011;11881;42.432;25.632;2022-10-16T03:53:22;8.83;;;4.00;;
23416;SDS011;11881;42.432;25.632;2022-10-16T03:55:48;6.80;;;3.97;;
23416;SDS011;11881;42.432;25.632;2022-10-16T03:58:14;8.50;;;3.47;;
23416;SDS011;11881;42.432;25.632;2022-10-16T04:00:40;6.53;;;3.80;;
23416;SDS011;11881;42.432;25.632;2022-10-16T04:03:09;11.90;;;3.70;;
23416;SDS011;11881;42.432;25.632;2022-10-16T04:05:36;7.13;;;3.73;;
23416;SDS011;11881;42.432;25.632;2022-10-16T04:08:02;8.40;;;4.03;;
23416;SDS011;11881;42.432;25.632;2022-10-16T04:10:27;9.70;;;4.33;;
23416;SDS011;11881;42.432;25.632;2022-10-16T04:12:53;7.80;;;4.10;;
23416;SDS011;11881;42.432;25.632;2022-10-16T04:15:20;8.07;;;3.57;;
23416;SDS011;11881;42.432;25.632;2022-10-16T04:17:49;6.10;;;4.13;;
23416;SDS011;11881;42.432;25.632;2022-10-16T04:20:15;5.97;;;3.93;;
23416;SDS011;11881;42.432;25.632;2022-10-16T04:22:40;5.60;;;3.53;;
23416;SDS011;11881;42.432;25.632;2022-10-16T04:25:06;10.27;;;3.70;;
23416;SDS011;11881;42.432;25.632;2022-10-16T04:27:32;5.70;;;3.50;;
23416;SDS011;11881;42.432;25.632;2022-10-16T04:30:00;5.97;;;3.97;;
23416;SDS011;11881;42.432;25.632;2022-10-16T04:32:26;7.27;;;4.03;;
23416;SDS011;11881;42.432;25.632;2022-10-16T04:34:52;7.13;;;3.63;;
23416;SDS011;11881;42.432;25.632;2022-10-16T04:37:17;10.00;;;4.07;;
23416;SDS011;11881;42.432;25.632;2022-10-16T04:39:43;6.23;;;3.80;;
23416;SDS011;11881;42.432;25.632;2022-10-16T04:42:09;7.47;;;3.57;;
23416;SDS011;11881;42.432;25.632;2022-10-16T04:44:35;8.07;;;4.00;;
23416;SDS011;11881;42.432;25.632;2022-10-16T04:47:00;7.33;;;3.80;;
23416;SDS011;11881;42.432;25.632;2022-10-16T04:49:26;8.27;;;3.73;;
23416;SDS011;11881;42.432;25.632;2022-10-16T04:51:51;11.37;;;4.07;;
23416;SDS011;11881;42.432;25.632;2022-10-16T04:54:17;9.23;;;4.07;;
23416;SDS011;11881;42.432;25.632;2022-10-16T04:56:42;8.87;;;4.53;;
23416;SDS011;11881;42.432;25.632;2022-10-16T04:59:12;10.77;;;3.97;;
23416;SDS011;11881;42.432;25.632;2022-10-16T05:01:39;6.57;;;3.90;;
23416;SDS011;11881;42.432;25.632;2022-10-16T05:04:04;11.93;;;3.83;;
23416;SDS011;11881;42.432;25.632;2022-10-16T05:06:29;10.70;;;3.83;;
23416;SDS011;11881;42.432;25.632;2022-10-16T05:08:55;10.53;;;4.43;;
23416;SDS011;11881;42.432;25.632;2022-10-16T05:11:20;8.07;;;4.03;;
23416;SDS011;11881;42.432;25.632;2022-10-16T05:13:46;6.60;;;3.87;;
23416;SDS011;11881;42.432;25.632;2022-10-16T05:16:11;11.07;;;4.37;;
23416;SDS011;11881;42.432;25.632;2022-10-16T05:18:37;9.57;;;4.10;;
23416;SDS011;11881;42.432;25.632;2022-10-16T05:21:02;5.13;;;3.97;;
23416;SDS011;11881;42.432;25.632;2022-10-16T05:23:28;9.30;;;3.90;;
23416;SDS011;11881;42.432;25.632;2022-10-16T05:25:54;7.27;;;3.87;;
23416;SDS011;11881;42.432;25.632;2022-10-16T05:28:26;6.70;;;4.13;;
23416;SDS011;11881;42.432;25.632;2022-10-16T05:30:53;12.33;;;4.10;;
23416;SDS011;11881;42.432;25.632;2022-10-16T05:33:19;9.90;;;3.90;;
23416;SDS011;11881;42.432;25.632;2022-10-16T05:35:46;5.33;;;3.90;;
23416;SDS011;11881;42.432;25.632;2022-10-16T05:38:11;8.40;;;3.70;;
23416;SDS011;11881;42.432;25.632;2022-10-16T05:40:36;5.97;;;4.10;;
23416;SDS011;11881;42.432;25.632;2022-10-16T05:43:02;11.33;;;5.23;;
23416;SDS011;11881;42.432;25.632;2022-10-16T05:45:27;9.53;;;5.57;;
23416;SDS011;11881;42.432;25.632;2022-10-16T05:47:53;10.30;;;4.50;;
23416;SDS011;11881;42.432;25.632;2022-10-16T05:50:18;9.83;;;6.13;;
23416;SDS011;11881;42.432;25.632;2022-10-16T05:52:44;13.43;;;6.40;;
23416;SDS011;11881;42.432;25.632;2022-10-16T05:55:09;11.67;;;6.20;;
23416;SDS011;11881;42.432;25.632;2022-10-16T05:57:34;16.83;;;6.80;;
23416;SDS011;11881;42.432;25.632;2022-10-16T06:00:00;12.07;;;5.93;;
23416;SDS011;11881;42.432;25.632;2022-10-16T06:02:25;18.27;;;6.90;;
23416;SDS011;11881;42.432;25.632;2022-10-16T06:04:51;13.57;;;4.97;;
23416;SDS011;11881;42.432;25.632;2022-10-16T06:07:18;7.30;;;4.17;;
23416;SDS011;11881;42.432;25.632;2022-10-16T06:09:47;9.30;;;4.17;;
23416;SDS011;11881;42.432;25.632;2022-10-16T06:12:13;5.77;;;3.90;;
23416;SDS011;11881;42.432;25.632;2022-10-16T06:14:39;6.70;;;3.77;;
23416;SDS011;11881;42.432;25.632;2022-10-16T06:17:04;5.90;;;3.80;;
23416;SDS011;11881;42.432;25.632;2022-10-16T06:19:29;11.00;;;3.80;;
23416;SDS011;11881;42.432;25.632;2022-10-16T06:21:56;8.13;;;3.70;;
23416;SDS011;11881;42.432;25.632;2022-10-16T06:24:23;10.57;;;4.03;;
23416;SDS011;11881;42.432;25.632;2022-10-16T06:26:48;9.90;;;4.30;;
23416;SDS011;11881;42.432;25.632;2022-10-16T06:29:13;8.20;;;3.90;;
23416;SDS011;11881;42.432;25.632;2022-10-16T06:31:39;6.97;;;3.83;;
23416;SDS011;11881;42.432;25.632;2022-10-16T06:34:04;8.93;;;3.60;;
23416;SDS011;11881;42.432;25.632;2022-10-16T06:36:34;6.73;;;4.10;;
23416;SDS011;11881;42.432;25.632;2022-10-16T06:39:00;10.50;;;4.53;;
23416;SDS011;11881;42.432;25.632;2022-10-16T06:41:25;8.13;;;3.60;;
23416;SDS011;11881;42.432;25.632;2022-10-16T06:43:51;9.10;;;4.27;;
23416;SDS011;11881;42.432;25.632;2022-10-16T06:46:18;5.43;;;3.90;;
23416;SDS011;11881;42.432;25.632;2022-10-16T06:48:45;6.77;;;4.03;;
23416;SDS011;11881;42.432;25.632;2022-10-16T06:51:13;12.10;;;4.13;;
23416;SDS011;11881;42.432;25.632;2022-10-16T06:53:46;10.90;;;3.90;;
23416;SDS011;11881;42.432;25.632;2022-10-16T06:58:44;10.83;;;3.80;;
23416;SDS011;11881;42.432;25.632;2022-10-16T07:01:10;12.47;;;4.43;;
23416;SDS011;11881;42.432;25.632;2022-10-16T07:03:37;8.93;;;4.40;;
23416;SDS011;11881;42.432;25.632;2022-10-16T07:06:05;13.27;;;4.53;;
23416;SDS011;11881;42.432;25.632;2022-10-16T07:08:32;11.33;;;4.90;;
23416;SDS011;11881;42.432;25.632;2022-10-16T07:11:02;10.77;;;4.60;;
23416;SDS011;11881;42.432;25.632;2022-10-16T07:13:29;13.13;;;4.60;;
23416;SDS011;11881;42.432;25.632;2022-10-16T07:15:57;7.20;;;4.40;;
23416;SDS011;11881;42.432;25.632;2022-10-16T07:18:23;9.80;;;5.00;;
23416;SDS011;11881;42.432;25.632;2022-10-16T07:20:51;11.00;;;5.23;;
23416;SDS011;11881;42.432;25.632;2022-10-16T07:23:17;12.30;;;5.13;;
23416;SDS011;11881;42.432;25.632;2022-10-16T07:25:42;10.93;;;5.43;;
23416;SDS011;11881;42.432;25.632;2022-10-16T07:28:08;11.07;;;5.80;;
23416;SDS011;11881;42.432;25.632;2022-10-16T07:30:34;14.07;;;6.37;;
23416;SDS011;11881;42.432;25.632;2022-10-16T07:33:01;11.40;;;6.13;;
23416;SDS011;11881;42.432;25.632;2022-10-16T07:35:26;12.10;;;6.73;;
23416;SDS011;11881;42.432;25.632;2022-10-16T07:37:52;11.27;;;6.30;;
23416;SDS011;11881;42.432;25.632;2022-10-16T07:40:17;13.33;;;6.80;;
23416;SDS011;11881;42.432;25.632;2022-10-16T07:42:43;14.17;;;7.33;;
23416;SDS011;11881;42.432;25.632;2022-10-16T07:45:08;11.90;;;7.57;;
23416;SDS011;11881;42.432;25.632;2022-10-16T07:47:34;13.07;;;7.77;;
23416;SDS011;11881;42.432;25.632;2022-10-16T07:49:59;11.27;;;7.30;;
23416;SDS011;11881;42.432;25.632;2022-10-16T07:52:24;14.50;;;7.50;;
23416;SDS011;11881;42.432;25.632;2022-10-16T07:54:50;15.23;;;8.10;;
23416;SDS011;11881;42.432;25.632;2022-10-16T07:57:15;14.50;;;8.00;;
23416;SDS011;11881;42.432;25.632;2022-10-16T07:59:44;18.20;;;8.50;;
23416;SDS011;11881;42.432;25.632;2022-10-16T08:02:11;24.57;;;8.13;;
23416;SDS011;11881;42.432;25.632;2022-10-16T08:04:36;13.77;;;7.87;;
23416;SDS011;11881;42.432;25.632;2022-10-16T08:07:02;19.57;;;8.43;;
23416;SDS011;11881;42.432;25.632;2022-10-16T08:09:27;16.73;;;9.20;;
23416;SDS011;11881;42.432;25.632;2022-10-16T08:11:52;18.70;;;8.87;;
23416;SDS011;11881;42.432;25.632;2022-10-16T08:14:18;11.60;;;8.43;;
23416;SDS011;11881;42.432;25.632;2022-10-16T08:16:43;15.03;;;8.77;;
23416;SDS011;11881;42.432;25.632;2022-10-16T08:19:09;13.37;;;9.20;;
23416;SDS011;11881;42.432;25.632;2022-10-16T08:21:34;12.67;;;8.40;;
23416;SDS011;11881;42.432;25.632;2022-10-16T08:23:59;13.97;;;8.37;;
23416;SDS011;11881;42.432;25.632;2022-10-16T08:26:25;19.83;;;9.00;;
23416;SDS011;11881;42.432;25.632;2022-10-16T08:28:51;12.20;;;7.90;;
23416;SDS011;11881;42.432;25.632;2022-10-16T08:31:17;12.67;;;8.20;;
23416;SDS011;11881;42.432;25.632;2022-10-16T08:33:43;15.03;;;8.47;;
23416;SDS011;11881;42.432;25.632;2022-10-16T08:36:11;11.87;;;7.80;;
23416;SDS011;11881;42.432;25.632;2022-10-16T08:38:37;11.07;;;7.70;;
23416;SDS011;11881;42.432;25.632;2022-10-16T08:48:56;14.33;;;7.50;;
23416;SDS011;11881;42.432;25.632;2022-10-16T08:51:24;11.90;;;7.43;;
23416;SDS011;11881;42.432;25.632;2022-10-16T08:53:58;16.60;;;7.27;;
23416;SDS011;11881;42.432;25.632;2022-10-16T08:56:26;10.67;;;6.97;;
23416;SDS011;11881;42.432;25.632;2022-10-16T08:58:52;17.03;;;6.70;;
23416;SDS011;11881;42.432;25.632;2022-10-16T09:01:19;15.30;;;8.10;;
23416;SDS011;11881;42.432;25.632;2022-10-16T09:14:56;11.40;;;6.83;;
23416;SDS011;11881;42.432;25.632;2022-10-16T09:22:43;9.30;;;5.23;;
23416;SDS011;11881;42.432;25.632;2022-10-16T09:25:15;10.53;;;6.20;;
23416;SDS011;11881;42.432;25.632;2022-10-16T09:27:44;9.13;;;5.43;;
23416;SDS011;11881;42.432;25.632;2022-10-16T09:30:16;9.97;;;5.30;;
23416;SDS011;11881;42.432;25.632;2022-10-16T09:32:43;8.57;;;5.20;;
23416;SDS011;11881;42.432;25.632;2022-10-16T09:35:13;15.03;;;6.57;;
23416;SDS011;11881;42.432;25.632;2022-10-16T09:37:42;19.40;;;4.90;;
23416;SDS011;11881;42.432;25.632;2022-10-16T09:40:13;6.97;;;5.00;;
23416;SDS011;11881;42.432;25.632;2022-10-16T09:48:48;10.27;;;4.10;;
23416;SDS011;11881;42.432;25.632;2022-10-16T09:51:18;5.67;;;4.23;;
23416;SDS011;11881;42.432;25.632;2022-10-16T09:53:48;7.33;;;3.70;;
23416;SDS011;11881;42.432;25.632;2022-10-16T09:56:21;5.87;;;3.83;;
23416;SDS011;11881;42.432;25.632;2022-10-16T09:58:49;11.70;;;3.83;;
23416;SDS011;11881;42.432;25.632;2022-10-16T10:01:17;9.00;;;3.87;;
23416;SDS011;11881;42.432;25.632;2022-10-16T10:03:44;11.37;;;4.40;;
23416;SDS011;11881;42.432;25.632;2022-10-16T10:06:18;6.13;;;4.30;;
23416;SDS011;11881;42.432;25.632;2022-10-16T10:08:56;8.37;;;4.70;;
23416;SDS011;11881;42.432;25.632;2022-10-16T10:11:41;9.90;;;4.50;;
23416;SDS011;11881;42.432;25.632;2022-10-16T10:16:48;4.97;;;2.47;;
23416;SDS011;11881;42.432;25.632;2022-10-16T10:19:15;5.53;;;3.13;;
23416;SDS011;11881;42.432;25.632;2022-10-16T10:21:42;3.93;;;2.60;;
23416;SDS011;11881;42.432;25.632;2022-10-16T10:24:11;9.23;;;2.90;;
23416;SDS011;11881;42.432;25.632;2022-10-16T10:29:37;6.73;;;2.43;;
23416;SDS011;11881;42.432;25.632;2022-10-16T10:43:34;3.70;;;1.80;;
23416;SDS011;11881;42.432;25.632;2022-10-16T10:46:30;4.03;;;2.20;;
23416;SDS011;11881;42.432;25.632;2022-10-16T10:56:57;5.60;;;2.20;;
23416;SDS011;11881;42.432;25.632;2022-10-16T11:01:56;13.20;;;4.73;;
23416;SDS011;11881;42.432;25.632;2022-10-16T11:09:55;8.93;;;5.07;;
23416;SDS011;11881;42.432;25.632;2022-10-16T11:12:30;7.63;;;5.63;;
23416;SDS011;11881;42.432;25.632;2022-10-16T11:17:41;11.30;;;5.27;;
23416;SDS011;11881;42.432;25.632;2022-10-16T11:20:20;6.77;;;4.60;;
23416;SDS011;11881;42.432;25.632;2022-10-16T11:25:37;9.77;;;4.93;;
23416;SDS011;11881;42.432;25.632;2022-10-16T11:28:09;8.53;;;3.90;;
23416;SDS011;11881;42.432;25.632;2022-10-16T11:30:46;7.03;;;4.27;;
23416;SDS011;11881;42.432;25.632;2022-10-16T11:33:21;10.13;;;4.47;;
23416;SDS011;11881;42.432;25.632;2022-10-16T11:35:53;10.97;;;4.93;;
23416;SDS011;11881;42.432;25.632;2022-10-16T11:41:13;6.93;;;4.07;;
23416;SDS011;11881;42.432;25.632;2022-10-16T11:46:21;6.97;;;4.33;;
23416;SDS011;11881;42.432;25.632;2022-10-16T11:49:32;8.90;;;4.53;;
23416;SDS011;11881;42.432;25.632;2022-10-16T11:51:42;8.43;;;3.83;;
23416;SDS011;11881;42.432;25.632;2022-10-16T11:56:39;6.37;;;4.57;;
23416;SDS011;11881;42.432;25.632;2022-10-16T11:59:13;8.17;;;4.00;;
23416;SDS011;11881;42.432;25.632;2022-10-16T12:02:25;9.80;;;3.67;;
23416;SDS011;11881;42.432;25.632;2022-10-16T12:07:42;7.20;;;3.50;;
23416;SDS011;11881;42.432;25.632;2022-10-16T12:10:22;6.43;;;3.73;;
23416;SDS011;11881;42.432;25.632;2022-10-16T12:12:50;6.37;;;3.03;;
23416;SDS011;11881;42.432;25.632;2022-10-16T12:15:23;5.53;;;3.37;;
23416;SDS011;11881;42.432;25.632;2022-10-16T12:17:49;9.53;;;3.40;;
23416;SDS011;11881;42.432;25.632;2022-10-16T12:22:52;6.67;;;4.20;;
23416;SDS011;11881;42.432;25.632;2022-10-16T12:25:30;6.53;;;3.50;;
23416;SDS011;11881;42.432;25.632;2022-10-16T12:28:17;4.70;;;3.33;;
23416;SDS011;11881;42.432;25.632;2022-10-16T12:30:52;7.10;;;3.50;;
23416;SDS011;11881;42.432;25.632;2022-10-16T12:35:48;6.80;;;4.07;;
23416;SDS011;11881;42.432;25.632;2022-10-16T12:38:18;13.10;;;4.20;;
23416;SDS011;11881;42.432;25.632;2022-10-16T12:43:42;6.77;;;3.70;;
23416;SDS011;11881;42.432;25.632;2022-10-16T12:48:39;5.47;;;3.00;;
23416;SDS011;11881;42.432;25.632;2022-10-16T12:51:12;8.77;;;2.57;;
23416;SDS011;11881;42.432;25.632;2022-10-16T12:53:57;4.90;;;2.40;;
23416;SDS011;11881;42.432;25.632;2022-10-16T12:56:24;6.27;;;2.70;;
23416;SDS011;11881;42.432;25.632;2022-10-16T12:59:14;5.17;;;2.90;;
23416;SDS011;11881;42.432;25.632;2022-10-16T13:04:40;6.57;;;2.60;;
23416;SDS011;11881;42.432;25.632;2022-10-16T13:07:34;6.10;;;2.10;;
23416;SDS011;11881;42.432;25.632;2022-10-16T13:10:24;5.70;;;2.60;;
23416;SDS011;11881;42.432;25.632;2022-10-16T13:16:12;8.00;;;2.83;;
23416;SDS011;11881;42.432;25.632;2022-10-16T13:29:52;7.27;;;2.00;;
23416;SDS011;11881;42.432;25.632;2022-10-16T13:32:20;6.53;;;2.40;;
23416;SDS011;11881;42.432;25.632;2022-10-16T13:34:48;6.60;;;2.37;;
23416;SDS011;11881;42.432;25.632;2022-10-16T13:37:31;5.87;;;2.13;;
23416;SDS011;11881;42.432;25.632;2022-10-16T13:42:55;7.77;;;2.10;;
23416;SDS011;11881;42.432;25.632;2022-10-16T13:45:21;8.10;;;2.20;;
23416;SDS011;11881;42.432;25.632;2022-10-16T13:47:49;11.07;;;2.10;;
23416;SDS011;11881;42.432;25.632;2022-10-16T13:50:15;15.13;;;2.43;;
23416;SDS011;11881;42.432;25.632;2022-10-16T13:52:43;11.53;;;2.47;;
23416;SDS011;11881;42.432;25.632;2022-10-16T13:57:38;7.57;;;2.27;;
23416;SDS011;11881;42.432;25.632;2022-10-16T14:00:17;8.93;;;2.00;;
23416;SDS011;11881;42.432;25.632;2022-10-16T14:02:58;11.93;;;2.63;;
23416;SDS011;11881;42.432;25.632;2022-10-16T14:05:28;6.07;;;2.60;;
23416;SDS011;11881;42.432;25.632;2022-10-16T14:07:53;3.83;;;2.33;;
23416;SDS011;11881;42.432;25.632;2022-10-16T14:10:25;6.73;;;2.30;;
23416;SDS011;11881;42.432;25.632;2022-10-16T14:12:58;9.70;;;2.53;;
23416;SDS011;11881;42.432;25.632;2022-10-16T14:15:27;14.00;;;2.77;;
23416;SDS011;11881;42.432;25.632;2022-10-16T14:17:54;13.13;;;2.37;;
23416;SDS011;11881;42.432;25.632;2022-10-16T14:20:20;9.90;;;2.53;;
23416;SDS011;11881;42.432;25.632;2022-10-16T14:22:57;11.30;;;2.70;;
23416;SDS011;11881;42.432;25.632;2022-10-16T14:25:26;10.77;;;2.23;;
23416;SDS011;11881;42.432;25.632;2022-10-16T14:27:58;16.90;;;2.90;;
23416;SDS011;11881;42.432;25.632;2022-10-16T14:30:27;12.27;;;2.80;;
23416;SDS011;11881;42.432;25.632;2022-10-16T14:33:00;12.20;;;3.00;;
23416;SDS011;11881;42.432;25.632;2022-10-16T14:35:35;11.10;;;3.10;;
23416;SDS011;11881;42.432;25.632;2022-10-16T14:38:03;14.83;;;3.80;;
23416;SDS011;11881;42.432;25.632;2022-10-16T14:40:35;10.23;;;2.87;;
23416;SDS011;11881;42.432;25.632;2022-10-16T14:43:02;12.87;;;3.00;;
23416;SDS011;11881;42.432;25.632;2022-10-16T14:45:30;6.23;;;2.50;;
23416;SDS011;11881;42.432;25.632;2022-10-16T14:47:58;13.67;;;2.80;;
23416;SDS011;11881;42.432;25.632;2022-10-16T14:50:26;8.83;;;3.03;;
23416;SDS011;11881;42.432;25.632;2022-10-16T14:52:52;7.17;;;2.63;;
23416;SDS011;11881;42.432;25.632;2022-10-16T14:55:18;11.33;;;2.70;;
23416;SDS011;11881;42.432;25.632;2022-10-16T14:57:44;11.17;;;2.70;;
23416;SDS011;11881;42.432;25.632;2022-10-16T15:00:17;6.67;;;2.60;;
23416;SDS011;11881;42.432;25.632;2022-10-16T15:02:45;22.00;;;3.00;;
23416;SDS011;11881;42.432;25.632;2022-10-16T15:05:15;10.97;;;3.10;;
23416;SDS011;11881;42.432;25.632;2022-10-16T15:07:45;10.73;;;3.43;;
23416;SDS011;11881;42.432;25.632;2022-10-16T15:10:11;14.33;;;3.03;;
23416;SDS011;11881;42.432;25.632;2022-10-16T15:12:38;12.77;;;3.40;;
23416;SDS011;11881;42.432;25.632;2022-10-16T15:15:15;8.37;;;3.13;;
23416;SDS011;11881;42.432;25.632;2022-10-16T15:17:46;16.00;;;3.53;;
23416;SDS011;11881;42.432;25.632;2022-10-16T15:20:12;11.13;;;3.40;;
23416;SDS011;11881;42.432;25.632;2022-10-16T15:22:38;19.10;;;6.23;;
23416;SDS011;11881;42.432;25.632;2022-10-16T15:25:09;18.67;;;5.60;;
23416;SDS011;11881;42.432;25.632;2022-10-16T15:27:40;17.13;;;6.93;;
23416;SDS011;11881;42.432;25.632;2022-10-16T15:30:06;18.97;;;6.50;;
23416;SDS011;11881;42.432;25.632;2022-10-16T15:32:32;17.07;;;5.03;;
23416;SDS011;11881;42.432;25.632;2022-10-16T15:34:58;11.43;;;3.47;;
23416;SDS011;11881;42.432;25.632;2022-10-16T15:37:23;10.00;;;3.30;;
23416;SDS011;11881;42.432;25.632;2022-10-16T15:39:49;8.83;;;3.00;;
23416;SDS011;11881;42.432;25.632;2022-10-16T15:42:15;13.67;;;3.60;;
23416;SDS011;11881;42.432;25.632;2022-10-16T15:44:40;14.83;;;3.43;;
23416;SDS011;11881;42.432;25.632;2022-10-16T15:47:07;7.90;;;2.83;;
23416;SDS011;11881;42.432;25.632;2022-10-16T15:49:33;12.10;;;3.50;;
23416;SDS011;11881;42.432;25.632;2022-10-16T15:51:58;9.50;;;3.10;;
23416;SDS011;11881;42.432;25.632;2022-10-16T15:54:23;26.30;;;3.57;;
23416;SDS011;11881;42.432;25.632;2022-10-16T15:56:49;8.50;;;2.97;;
23416;SDS011;11881;42.432;25.632;2022-10-16T15:59:14;10.17;;;3.17;;
23416;SDS011;11881;42.432;25.632;2022-10-16T16:01:40;12.73;;;3.47;;
23416;SDS011;11881;42.432;25.632;2022-10-16T16:04:05;9.37;;;3.30;;
23416;SDS011;11881;42.432;25.632;2022-10-16T16:06:31;7.50;;;3.30;;
23416;SDS011;11881;42.432;25.632;2022-10-16T16:08:57;10.33;;;3.20;;
23416;SDS011;11881;42.432;25.632;2022-10-16T16:11:24;11.13;;;3.13;;
23416;SDS011;11881;42.432;25.632;2022-10-16T16:13:50;8.43;;;3.10;;
23416;SDS011;11881;42.432;25.632;2022-10-16T16:16:15;9.53;;;2.80;;
23416;SDS011;11881;42.432;25.632;2022-10-16T16:18:41;6.20;;;2.87;;
23416;SDS011;11881;42.432;25.632;2022-10-16T16:21:09;9.47;;;4.57;;
23416;SDS011;11881;42.432;25.632;2022-10-16T16:23:35;7.60;;;3.23;;
23416;SDS011;11881;42.432;25.632;2022-10-16T16:28:35;11.10;;;4.53;;
23416;SDS011;11881;42.432;25.632;2022-10-16T16:31:02;7.37;;;3.73;;
23416;SDS011;11881;42.432;25.632;2022-10-16T16:33:28;10.03;;;3.53;;
23416;SDS011;11881;42.432;25.632;2022-10-16T16:36:00;5.07;;;3.30;;
23416;SDS011;11881;42.432;25.632;2022-10-16T16:38:27;8.47;;;3.33;;
23416;SDS011;11881;42.432;25.632;2022-10-16T16:40:53;16.53;;;4.20;;
23416;SDS011;11881;42.432;25.632;2022-10-16T16:43:18;13.73;;;4.77;;
23416;SDS011;11881;42.432;25.632;2022-10-16T16:45:44;12.10;;;5.67;;
23416;SDS011;11881;42.432;25.632;2022-10-16T16:48:10;9.53;;;4.33;;
23416;SDS011;11881;42.432;25.632;2022-10-16T16:50:38;11.33;;;5.30;;